South Lynnfield, Massachusetts
Current Conditions -  °F | °C
As of 6:53 PM on Wednesday 22 Oct 2014 (Local Time) from KBVY Reporting Station
Light Rain Light Rain  
Wind Chill: 51°   Ceiling: 600
Heat Index: 51°   Visibility: 3mi
Dew Point: 49°   Wind: 24mph
Humidity: 92%   Direction: 40°NE
Pressure: 29.89"   Gusts: 43mph
Location:  42.5359°N, 71.0388°W
Report Text: KBVY 222253Z 04021G37KT 3SM -RA BR BKN006 OVC010 11/09 A2989 RMK AO2 PK WND 06039/2227 SLP117 P0009 T01060094
Loading
Personal Weather Stations






























Interactive Weather Map
Tropical Storm Tracking
New forecast layout! Learn more

10-Day Weather Forecast

Advertisements
Track Severe Weather on mobile